sensor_id;sensor_type;location;lat;lon;timestamp;P1;durP1;ratioP1;P2;durP2;ratioP2
22172;SDS011;11252;50.596;17.648;2022-10-30T00:01:13;61.40;;;40.10;;
22172;SDS011;11252;50.596;17.648;2022-10-30T00:03:40;40.47;;;26.60;;
22172;SDS011;11252;50.596;17.648;2022-10-30T00:06:07;36.50;;;23.53;;
22172;SDS011;11252;50.596;17.648;2022-10-30T00:08:35;33.87;;;23.97;;
22172;SDS011;11252;50.596;17.648;2022-10-30T00:11:12;36.23;;;24.50;;
22172;SDS011;11252;50.596;17.648;2022-10-30T00:13:41;30.53;;;22.63;;
22172;SDS011;11252;50.596;17.648;2022-10-30T00:16:10;40.70;;;28.13;;
22172;SDS011;11252;50.596;17.648;2022-10-30T00:18:38;34.27;;;26.47;;
22172;SDS011;11252;50.596;17.648;2022-10-30T00:21:08;39.57;;;28.17;;
22172;SDS011;11252;50.596;17.648;2022-10-30T00:23:37;33.57;;;24.50;;
22172;SDS011;11252;50.596;17.648;2022-10-30T00:26:06;36.20;;;25.03;;
22172;SDS011;11252;50.596;17.648;2022-10-30T00:28:34;33.57;;;24.77;;
22172;SDS011;11252;50.596;17.648;2022-10-30T00:31:01;31.83;;;22.00;;
22172;SDS011;11252;50.596;17.648;2022-10-30T00:33:30;31.60;;;22.67;;
22172;SDS011;11252;50.596;17.648;2022-10-30T00:35:57;29.30;;;21.57;;
22172;SDS011;11252;50.596;17.648;2022-10-30T00:38:25;32.53;;;22.87;;
22172;SDS011;11252;50.596;17.648;2022-10-30T00:40:52;30.37;;;21.07;;
22172;SDS011;11252;50.596;17.648;2022-10-30T00:45:54;30.57;;;23.07;;
22172;SDS011;11252;50.596;17.648;2022-10-30T00:48:25;31.87;;;23.57;;
22172;SDS011;11252;50.596;17.648;2022-10-30T00:50:55;31.30;;;22.53;;
22172;SDS011;11252;50.596;17.648;2022-10-30T00:53:25;40.27;;;25.87;;
22172;SDS011;11252;50.596;17.648;2022-10-30T00:55:54;34.00;;;22.60;;
22172;SDS011;11252;50.596;17.648;2022-10-30T00:58:43;32.50;;;21.70;;
22172;SDS011;11252;50.596;17.648;2022-10-30T01:01:16;30.90;;;22.33;;
22172;SDS011;11252;50.596;17.648;2022-10-30T01:03:47;31.90;;;21.73;;
22172;SDS011;11252;50.596;17.648;2022-10-30T01:06:18;28.93;;;20.83;;
22172;SDS011;11252;50.596;17.648;2022-10-30T01:08:45;32.10;;;21.27;;
22172;SDS011;11252;50.596;17.648;2022-10-30T01:11:13;28.17;;;21.70;;
22172;SDS011;11252;50.596;17.648;2022-10-30T01:13:41;26.60;;;20.53;;
22172;SDS011;11252;50.596;17.648;2022-10-30T01:18:55;35.47;;;21.23;;
22172;SDS011;11252;50.596;17.648;2022-10-30T01:24:30;29.77;;;21.23;;
22172;SDS011;11252;50.596;17.648;2022-10-30T01:29:54;28.53;;;19.73;;
22172;SDS011;11252;50.596;17.648;2022-10-30T01:35:40;32.87;;;22.63;;
22172;SDS011;11252;50.596;17.648;2022-10-30T01:40:47;30.20;;;20.43;;
22172;SDS011;11252;50.596;17.648;2022-10-30T01:43:14;32.20;;;21.10;;
22172;SDS011;11252;50.596;17.648;2022-10-30T02:00:17;29.50;;;22.47;;
22172;SDS011;11252;50.596;17.648;2022-10-30T02:02:47;35.37;;;23.63;;
22172;SDS011;11252;50.596;17.648;2022-10-30T02:05:27;34.97;;;23.23;;
22172;SDS011;11252;50.596;17.648;2022-10-30T02:08:02;36.10;;;23.20;;
22172;SDS011;11252;50.596;17.648;2022-10-30T02:10:29;32.50;;;22.77;;
22172;SDS011;11252;50.596;17.648;2022-10-30T02:12:59;34.17;;;22.30;;
22172;SDS011;11252;50.596;17.648;2022-10-30T02:15:27;33.50;;;22.83;;
22172;SDS011;11252;50.596;17.648;2022-10-30T02:17:56;34.47;;;22.07;;
22172;SDS011;11252;50.596;17.648;2022-10-30T02:20:24;33.77;;;24.30;;
22172;SDS011;11252;50.596;17.648;2022-10-30T02:22:52;36.87;;;25.27;;
22172;SDS011;11252;50.596;17.648;2022-10-30T02:25:24;31.30;;;23.00;;
22172;SDS011;11252;50.596;17.648;2022-10-30T02:27:52;35.57;;;24.77;;
22172;SDS011;11252;50.596;17.648;2022-10-30T02:30:19;29.20;;;23.23;;
22172;SDS011;11252;50.596;17.648;2022-10-30T02:32:46;30.80;;;22.90;;
22172;SDS011;11252;50.596;17.648;2022-10-30T02:35:14;36.60;;;25.53;;
22172;SDS011;11252;50.596;17.648;2022-10-30T02:37:41;30.73;;;24.20;;
22172;SDS011;11252;50.596;17.648;2022-10-30T02:40:08;33.73;;;23.27;;
22172;SDS011;11252;50.596;17.648;2022-10-30T02:42:37;29.83;;;21.73;;
22172;SDS011;11252;50.596;17.648;2022-10-30T02:45:05;28.80;;;21.20;;
22172;SDS011;11252;50.596;17.648;2022-10-30T02:47:32;29.00;;;21.07;;
22172;SDS011;11252;50.596;17.648;2022-10-30T02:49:59;32.70;;;22.17;;
22172;SDS011;11252;50.596;17.648;2022-10-30T02:52:27;29.57;;;20.97;;
22172;SDS011;11252;50.596;17.648;2022-10-30T02:54:54;29.30;;;20.57;;
22172;SDS011;11252;50.596;17.648;2022-10-30T02:57:21;30.33;;;21.47;;
22172;SDS011;11252;50.596;17.648;2022-10-30T02:59:48;29.80;;;20.73;;
22172;SDS011;11252;50.596;17.648;2022-10-30T03:02:15;32.30;;;21.00;;
22172;SDS011;11252;50.596;17.648;2022-10-30T03:04:43;31.47;;;22.07;;
22172;SDS011;11252;50.596;17.648;2022-10-30T03:07:10;32.37;;;22.73;;
22172;SDS011;11252;50.596;17.648;2022-10-30T03:09:37;32.70;;;24.23;;
22172;SDS011;11252;50.596;17.648;2022-10-30T03:12:04;33.70;;;23.80;;
22172;SDS011;11252;50.596;17.648;2022-10-30T03:14:32;34.80;;;23.93;;
22172;SDS011;11252;50.596;17.648;2022-10-30T03:16:59;34.50;;;22.80;;
22172;SDS011;11252;50.596;17.648;2022-10-30T03:19:26;32.97;;;22.43;;
22172;SDS011;11252;50.596;17.648;2022-10-30T03:21:54;31.47;;;21.93;;
22172;SDS011;11252;50.596;17.648;2022-10-30T03:24:21;32.33;;;23.83;;
22172;SDS011;11252;50.596;17.648;2022-10-30T03:26:48;32.23;;;23.73;;
22172;SDS011;11252;50.596;17.648;2022-10-30T03:29:15;32.40;;;24.37;;
22172;SDS011;11252;50.596;17.648;2022-10-30T03:31:43;30.70;;;22.53;;
22172;SDS011;11252;50.596;17.648;2022-10-30T03:34:10;35.57;;;23.87;;
22172;SDS011;11252;50.596;17.648;2022-10-30T03:36:37;39.73;;;27.40;;
22172;SDS011;11252;50.596;17.648;2022-10-30T03:39:05;46.03;;;34.50;;
22172;SDS011;11252;50.596;17.648;2022-10-30T03:41:32;50.80;;;36.43;;
22172;SDS011;11252;50.596;17.648;2022-10-30T03:43:59;38.07;;;27.43;;
22172;SDS011;11252;50.596;17.648;2022-10-30T03:46:27;38.50;;;28.30;;
22172;SDS011;11252;50.596;17.648;2022-10-30T03:48:56;40.10;;;27.33;;
22172;SDS011;11252;50.596;17.648;2022-10-30T03:51:23;51.60;;;38.13;;
22172;SDS011;11252;50.596;17.648;2022-10-30T03:53:50;38.37;;;26.03;;
22172;SDS011;11252;50.596;17.648;2022-10-30T03:56:18;33.73;;;23.17;;
22172;SDS011;11252;50.596;17.648;2022-10-30T03:58:45;39.00;;;24.67;;
22172;SDS011;11252;50.596;17.648;2022-10-30T04:01:12;31.07;;;22.70;;
22172;SDS011;11252;50.596;17.648;2022-10-30T04:03:39;35.57;;;29.67;;
22172;SDS011;11252;50.596;17.648;2022-10-30T04:06:07;36.57;;;26.43;;
22172;SDS011;11252;50.596;17.648;2022-10-30T04:08:35;29.83;;;23.50;;
22172;SDS011;11252;50.596;17.648;2022-10-30T04:11:02;60.77;;;47.93;;
22172;SDS011;11252;50.596;17.648;2022-10-30T04:13:30;51.77;;;39.47;;
22172;SDS011;11252;50.596;17.648;2022-10-30T04:15:57;50.10;;;35.37;;
22172;SDS011;11252;50.596;17.648;2022-10-30T04:18:25;55.67;;;36.13;;
22172;SDS011;11252;50.596;17.648;2022-10-30T04:20:52;45.60;;;30.50;;
22172;SDS011;11252;50.596;17.648;2022-10-30T04:23:20;44.77;;;29.50;;
22172;SDS011;11252;50.596;17.648;2022-10-30T04:25:48;41.63;;;27.87;;
22172;SDS011;11252;50.596;17.648;2022-10-30T04:28:15;50.53;;;33.43;;
22172;SDS011;11252;50.596;17.648;2022-10-30T04:30:42;110.30;;;57.67;;
22172;SDS011;11252;50.596;17.648;2022-10-30T04:33:12;125.37;;;63.90;;
22172;SDS011;11252;50.596;17.648;2022-10-30T04:35:40;111.20;;;65.03;;
22172;SDS011;11252;50.596;17.648;2022-10-30T04:38:16;63.27;;;40.97;;
22172;SDS011;11252;50.596;17.648;2022-10-30T04:40:46;58.10;;;39.40;;
22172;SDS011;11252;50.596;17.648;2022-10-30T04:43:14;64.80;;;42.23;;
22172;SDS011;11252;50.596;17.648;2022-10-30T04:45:42;52.00;;;33.83;;
22172;SDS011;11252;50.596;17.648;2022-10-30T04:48:12;39.47;;;28.20;;
22172;SDS011;11252;50.596;17.648;2022-10-30T04:50:41;33.20;;;24.67;;
22172;SDS011;11252;50.596;17.648;2022-10-30T04:53:13;46.17;;;31.63;;
22172;SDS011;11252;50.596;17.648;2022-10-30T04:55:42;40.17;;;28.37;;
22172;SDS011;11252;50.596;17.648;2022-10-30T04:58:10;47.23;;;31.27;;
22172;SDS011;11252;50.596;17.648;2022-10-30T05:00:38;58.43;;;38.97;;
22172;SDS011;11252;50.596;17.648;2022-10-30T05:03:05;49.07;;;32.80;;
22172;SDS011;11252;50.596;17.648;2022-10-30T05:05:33;34.40;;;25.50;;
22172;SDS011;11252;50.596;17.648;2022-10-30T05:08:00;29.87;;;23.47;;
22172;SDS011;11252;50.596;17.648;2022-10-30T05:10:28;34.10;;;24.83;;
22172;SDS011;11252;50.596;17.648;2022-10-30T05:12:55;38.60;;;29.50;;
22172;SDS011;11252;50.596;17.648;2022-10-30T05:15:25;38.83;;;26.60;;
22172;SDS011;11252;50.596;17.648;2022-10-30T05:17:52;34.93;;;27.20;;
22172;SDS011;11252;50.596;17.648;2022-10-30T05:20:21;33.70;;;25.00;;
22172;SDS011;11252;50.596;17.648;2022-10-30T05:22:57;36.67;;;27.53;;
22172;SDS011;11252;50.596;17.648;2022-10-30T05:25:25;34.17;;;25.83;;
22172;SDS011;11252;50.596;17.648;2022-10-30T05:28:00;40.40;;;27.83;;
22172;SDS011;11252;50.596;17.648;2022-10-30T05:30:30;27.37;;;23.10;;
22172;SDS011;11252;50.596;17.648;2022-10-30T05:33:05;28.60;;;21.77;;
22172;SDS011;11252;50.596;17.648;2022-10-30T05:35:35;30.80;;;22.63;;
22172;SDS011;11252;50.596;17.648;2022-10-30T05:38:04;34.30;;;26.00;;
22172;SDS011;11252;50.596;17.648;2022-10-30T05:40:33;34.43;;;25.27;;
22172;SDS011;11252;50.596;17.648;2022-10-30T05:43:01;38.53;;;27.27;;
22172;SDS011;11252;50.596;17.648;2022-10-30T05:45:28;38.47;;;29.60;;
22172;SDS011;11252;50.596;17.648;2022-10-30T05:47:56;29.47;;;22.67;;
22172;SDS011;11252;50.596;17.648;2022-10-30T05:50:29;28.30;;;21.37;;
22172;SDS011;11252;50.596;17.648;2022-10-30T05:53:00;28.43;;;20.10;;
22172;SDS011;11252;50.596;17.648;2022-10-30T05:55:29;24.23;;;19.33;;
22172;SDS011;11252;50.596;17.648;2022-10-30T05:57:57;25.07;;;19.53;;
22172;SDS011;11252;50.596;17.648;2022-10-30T06:00:27;24.80;;;19.40;;
22172;SDS011;11252;50.596;17.648;2022-10-30T06:03:00;31.07;;;19.70;;
22172;SDS011;11252;50.596;17.648;2022-10-30T06:05:30;33.47;;;25.53;;
22172;SDS011;11252;50.596;17.648;2022-10-30T06:07:59;33.30;;;21.33;;
22172;SDS011;11252;50.596;17.648;2022-10-30T06:10:28;25.47;;;21.23;;
22172;SDS011;11252;50.596;17.648;2022-10-30T06:12:56;25.50;;;19.60;;
22172;SDS011;11252;50.596;17.648;2022-10-30T06:15:26;25.17;;;19.47;;
22172;SDS011;11252;50.596;17.648;2022-10-30T06:17:54;23.90;;;18.23;;
22172;SDS011;11252;50.596;17.648;2022-10-30T06:20:23;26.80;;;19.23;;
22172;SDS011;11252;50.596;17.648;2022-10-30T06:22:55;24.97;;;18.87;;
22172;SDS011;11252;50.596;17.648;2022-10-30T06:25:23;27.73;;;18.40;;
22172;SDS011;11252;50.596;17.648;2022-10-30T06:27:51;26.50;;;18.30;;
22172;SDS011;11252;50.596;17.648;2022-10-30T06:30:18;25.50;;;18.70;;
22172;SDS011;11252;50.596;17.648;2022-10-30T06:32:48;27.20;;;18.40;;
22172;SDS011;11252;50.596;17.648;2022-10-30T06:35:15;23.40;;;17.50;;
22172;SDS011;11252;50.596;17.648;2022-10-30T06:37:44;24.87;;;18.80;;
22172;SDS011;11252;50.596;17.648;2022-10-30T06:40:14;29.47;;;20.33;;
22172;SDS011;11252;50.596;17.648;2022-10-30T06:42:46;25.23;;;17.73;;
22172;SDS011;11252;50.596;17.648;2022-10-30T06:45:16;25.20;;;18.43;;
22172;SDS011;11252;50.596;17.648;2022-10-30T06:47:45;22.23;;;17.17;;
22172;SDS011;11252;50.596;17.648;2022-10-30T06:50:14;25.40;;;16.00;;
22172;SDS011;11252;50.596;17.648;2022-10-30T06:52:43;21.90;;;15.10;;
22172;SDS011;11252;50.596;17.648;2022-10-30T06:55:10;19.50;;;15.43;;
22172;SDS011;11252;50.596;17.648;2022-10-30T06:57:38;22.53;;;15.50;;
22172;SDS011;11252;50.596;17.648;2022-10-30T07:00:06;21.60;;;15.83;;
22172;SDS011;11252;50.596;17.648;2022-10-30T07:02:34;23.23;;;16.77;;
22172;SDS011;11252;50.596;17.648;2022-10-30T07:05:01;24.20;;;14.27;;
22172;SDS011;11252;50.596;17.648;2022-10-30T07:07:29;21.67;;;14.67;;
22172;SDS011;11252;50.596;17.648;2022-10-30T07:09:56;21.17;;;14.87;;
22172;SDS011;11252;50.596;17.648;2022-10-30T07:12:27;25.43;;;14.40;;
22172;SDS011;11252;50.596;17.648;2022-10-30T07:14:54;20.37;;;13.83;;
22172;SDS011;11252;50.596;17.648;2022-10-30T07:17:22;19.97;;;13.93;;
22172;SDS011;11252;50.596;17.648;2022-10-30T07:19:49;25.30;;;14.60;;
22172;SDS011;11252;50.596;17.648;2022-10-30T07:22:16;21.53;;;15.27;;
22172;SDS011;11252;50.596;17.648;2022-10-30T07:24:44;19.70;;;14.37;;
22172;SDS011;11252;50.596;17.648;2022-10-30T07:27:26;23.87;;;14.03;;
22172;SDS011;11252;50.596;17.648;2022-10-30T07:29:53;24.13;;;15.57;;
22172;SDS011;11252;50.596;17.648;2022-10-30T07:32:21;27.50;;;17.20;;
22172;SDS011;11252;50.596;17.648;2022-10-30T07:34:48;20.93;;;14.67;;
22172;SDS011;11252;50.596;17.648;2022-10-30T07:37:15;16.50;;;13.40;;
22172;SDS011;11252;50.596;17.648;2022-10-30T07:39:43;19.30;;;14.53;;
22172;SDS011;11252;50.596;17.648;2022-10-30T07:42:10;22.60;;;15.63;;
22172;SDS011;11252;50.596;17.648;2022-10-30T07:44:37;20.33;;;14.13;;
22172;SDS011;11252;50.596;17.648;2022-10-30T07:47:05;21.40;;;14.00;;
22172;SDS011;11252;50.596;17.648;2022-10-30T07:49:32;24.20;;;13.37;;
22172;SDS011;11252;50.596;17.648;2022-10-30T07:52:03;17.17;;;12.87;;
22172;SDS011;11252;50.596;17.648;2022-10-30T07:54:31;21.20;;;14.23;;
22172;SDS011;11252;50.596;17.648;2022-10-30T07:56:59;31.10;;;19.97;;
22172;SDS011;11252;50.596;17.648;2022-10-30T07:59:26;19.97;;;15.53;;
22172;SDS011;11252;50.596;17.648;2022-10-30T08:01:54;22.27;;;13.53;;
22172;SDS011;11252;50.596;17.648;2022-10-30T08:04:21;24.67;;;16.67;;
22172;SDS011;11252;50.596;17.648;2022-10-30T08:06:49;33.90;;;21.00;;
22172;SDS011;11252;50.596;17.648;2022-10-30T08:09:16;19.87;;;11.07;;
22172;SDS011;11252;50.596;17.648;2022-10-30T08:11:46;17.63;;;9.43;;
22172;SDS011;11252;50.596;17.648;2022-10-30T08:14:14;21.43;;;12.50;;
22172;SDS011;11252;50.596;17.648;2022-10-30T08:16:45;13.57;;;9.30;;
22172;SDS011;11252;50.596;17.648;2022-10-30T08:19:13;13.67;;;9.47;;
22172;SDS011;11252;50.596;17.648;2022-10-30T08:21:41;16.47;;;9.33;;
22172;SDS011;11252;50.596;17.648;2022-10-30T08:24:09;21.90;;;11.97;;
22172;SDS011;11252;50.596;17.648;2022-10-30T08:26:37;11.53;;;8.20;;
22172;SDS011;11252;50.596;17.648;2022-10-30T08:29:04;11.60;;;7.90;;
22172;SDS011;11252;50.596;17.648;2022-10-30T08:31:32;11.47;;;7.70;;
22172;SDS011;11252;50.596;17.648;2022-10-30T08:33:59;12.90;;;7.23;;
22172;SDS011;11252;50.596;17.648;2022-10-30T08:36:26;12.90;;;6.37;;
22172;SDS011;11252;50.596;17.648;2022-10-30T08:38:55;13.83;;;8.13;;
22172;SDS011;11252;50.596;17.648;2022-10-30T08:41:24;20.47;;;14.27;;
22172;SDS011;11252;50.596;17.648;2022-10-30T08:43:51;13.10;;;6.83;;
22172;SDS011;11252;50.596;17.648;2022-10-30T08:46:19;11.63;;;7.80;;
22172;SDS011;11252;50.596;17.648;2022-10-30T08:48:46;14.83;;;6.70;;
22172;SDS011;11252;50.596;17.648;2022-10-30T08:51:13;11.83;;;7.37;;
22172;SDS011;11252;50.596;17.648;2022-10-30T08:53:41;12.27;;;5.73;;
22172;SDS011;11252;50.596;17.648;2022-10-30T08:56:08;11.77;;;5.57;;
22172;SDS011;11252;50.596;17.648;2022-10-30T08:58:39;11.27;;;6.15;;
22172;SDS011;11252;50.596;17.648;2022-10-30T09:01:06;15.75;;;8.05;;
22172;SDS011;11252;50.596;17.648;2022-10-30T09:03:33;11.48;;;6.90;;
22172;SDS011;11252;50.596;17.648;2022-10-30T09:06:02;6.35;;;5.05;;
22172;SDS011;11252;50.596;17.648;2022-10-30T09:08:30;14.02;;;6.30;;
22172;SDS011;11252;50.596;17.648;2022-10-30T09:10:58;8.70;;;4.97;;
22172;SDS011;11252;50.596;17.648;2022-10-30T09:13:25;10.00;;;6.57;;
22172;SDS011;11252;50.596;17.648;2022-10-30T09:15:53;10.77;;;5.50;;
22172;SDS011;11252;50.596;17.648;2022-10-30T09:18:24;9.60;;;6.57;;
22172;SDS011;11252;50.596;17.648;2022-10-30T09:20:52;7.68;;;5.15;;
22172;SDS011;11252;50.596;17.648;2022-10-30T09:23:20;6.85;;;5.05;;
22172;SDS011;11252;50.596;17.648;2022-10-30T09:25:47;8.45;;;5.20;;
22172;SDS011;11252;50.596;17.648;2022-10-30T09:28:15;8.32;;;5.38;;
22172;SDS011;11252;50.596;17.648;2022-10-30T09:30:42;42.95;;;21.05;;
22172;SDS011;11252;50.596;17.648;2022-10-30T09:33:10;8.90;;;4.65;;
22172;SDS011;11252;50.596;17.648;2022-10-30T09:35:38;8.90;;;5.43;;
22172;SDS011;11252;50.596;17.648;2022-10-30T09:38:05;10.60;;;4.97;;
22172;SDS011;11252;50.596;17.648;2022-10-30T09:40:39;15.48;;;6.85;;
22172;SDS011;11252;50.596;17.648;2022-10-30T09:46:24;12.23;;;4.40;;
22172;SDS011;11252;50.596;17.648;2022-10-30T09:51:42;10.85;;;5.55;;
22172;SDS011;11252;50.596;17.648;2022-10-30T10:02:34;14.00;;;5.68;;
22172;SDS011;11252;50.596;17.648;2022-10-30T10:05:04;9.77;;;6.25;;
22172;SDS011;11252;50.596;17.648;2022-10-30T10:07:47;9.95;;;6.07;;
22172;SDS011;11252;50.596;17.648;2022-10-30T10:10:39;11.30;;;5.45;;
22172;SDS011;11252;50.596;17.648;2022-10-30T10:16:16;12.95;;;4.72;;
22172;SDS011;11252;50.596;17.648;2022-10-30T10:21:27;9.80;;;4.15;;
22172;SDS011;11252;50.596;17.648;2022-10-30T10:23:56;7.47;;;3.83;;
22172;SDS011;11252;50.596;17.648;2022-10-30T10:32:26;6.30;;;4.28;;
22172;SDS011;11252;50.596;17.648;2022-10-30T10:41:52;7.95;;;5.07;;
22172;SDS011;11252;50.596;17.648;2022-10-30T10:44:11;5.70;;;4.95;;
22172;SDS011;11252;50.596;17.648;2022-10-30T10:46:58;9.95;;;5.35;;
22172;SDS011;11252;50.596;17.648;2022-10-30T10:52:42;12.88;;;5.50;;
22172;SDS011;11252;50.596;17.648;2022-10-30T10:55:18;12.77;;;5.45;;
22172;SDS011;11252;50.596;17.648;2022-10-30T10:57:52;12.18;;;5.43;;
22172;SDS011;11252;50.596;17.648;2022-10-30T11:00:24;13.43;;;5.93;;
22172;SDS011;11252;50.596;17.648;2022-10-30T11:05:41;11.27;;;8.45;;
22172;SDS011;11252;50.596;17.648;2022-10-30T11:08:32;16.15;;;8.75;;
22172;SDS011;11252;50.596;17.648;2022-10-30T11:11:04;10.60;;;5.78;;
22172;SDS011;11252;50.596;17.648;2022-10-30T11:13:37;11.70;;;4.95;;
22172;SDS011;11252;50.596;17.648;2022-10-30T11:18:59;13.02;;;4.72;;
22172;SDS011;11252;50.596;17.648;2022-10-30T11:21:30;10.80;;;4.32;;
22172;SDS011;11252;50.596;17.648;2022-10-30T11:24:07;10.00;;;4.80;;
22172;SDS011;11252;50.596;17.648;2022-10-30T11:26:51;13.18;;;5.22;;
22172;SDS011;11252;50.596;17.648;2022-10-30T11:29:29;13.70;;;5.45;;
22172;SDS011;11252;50.596;17.648;2022-10-30T11:32:01;9.02;;;4.80;;
22172;SDS011;11252;50.596;17.648;2022-10-30T11:34:30;12.15;;;5.40;;
22172;SDS011;11252;50.596;17.648;2022-10-30T11:36:58;10.23;;;4.85;;
22172;SDS011;11252;50.596;17.648;2022-10-30T11:39:27;12.02;;;4.35;;
22172;SDS011;11252;50.596;17.648;2022-10-30T11:47:09;10.55;;;5.07;;
22172;SDS011;11252;50.596;17.648;2022-10-30T11:49:40;11.55;;;4.45;;
22172;SDS011;11252;50.596;17.648;2022-10-30T11:52:12;7.85;;;4.03;;
22172;SDS011;11252;50.596;17.648;2022-10-30T11:54:43;9.93;;;3.80;;
22172;SDS011;11252;50.596;17.648;2022-10-30T11:57:16;10.68;;;4.18;;
22172;SDS011;11252;50.596;17.648;2022-10-30T11:59:51;9.13;;;4.03;;
22172;SDS011;11252;50.596;17.648;2022-10-30T12:02:38;10.52;;;3.70;;
22172;SDS011;11252;50.596;17.648;2022-10-30T12:05:27;7.53;;;4.25;;
22172;SDS011;11252;50.596;17.648;2022-10-30T12:10:37;8.50;;;4.05;;
22172;SDS011;11252;50.596;17.648;2022-10-30T12:13:20;8.25;;;4.25;;
22172;SDS011;11252;50.596;17.648;2022-10-30T12:15:50;9.38;;;3.70;;
22172;SDS011;11252;50.596;17.648;2022-10-30T12:18:56;10.07;;;3.72;;
22172;SDS011;11252;50.596;17.648;2022-10-30T12:21:26;8.02;;;3.63;;
22172;SDS011;11252;50.596;17.648;2022-10-30T12:24:01;8.18;;;4.18;;
22172;SDS011;11252;50.596;17.648;2022-10-30T12:26:36;8.23;;;3.65;;
22172;SDS011;11252;50.596;17.648;2022-10-30T12:29:16;8.98;;;3.53;;
22172;SDS011;11252;50.596;17.648;2022-10-30T12:32:15;7.65;;;3.88;;
22172;SDS011;11252;50.596;17.648;2022-10-30T12:35:35;7.30;;;3.58;;
22172;SDS011;11252;50.596;17.648;2022-10-30T12:38:02;7.60;;;3.92;;
22172;SDS011;11252;50.596;17.648;2022-10-30T12:40:44;9.25;;;4.13;;
22172;SDS011;11252;50.596;17.648;2022-10-30T12:43:29;6.72;;;3.55;;
22172;SDS011;11252;50.596;17.648;2022-10-30T12:46:07;7.47;;;4.13;;
22172;SDS011;11252;50.596;17.648;2022-10-30T12:49:13;5.97;;;3.50;;
22172;SDS011;11252;50.596;17.648;2022-10-30T12:57:26;8.05;;;3.53;;
22172;SDS011;11252;50.596;17.648;2022-10-30T13:00:14;10.40;;;3.75;;
22172;SDS011;11252;50.596;17.648;2022-10-30T13:02:46;7.55;;;4.32;;
22172;SDS011;11252;50.596;17.648;2022-10-30T13:10:46;12.32;;;4.55;;
22172;SDS011;11252;50.596;17.648;2022-10-30T13:13:22;8.15;;;4.20;;
22172;SDS011;11252;50.596;17.648;2022-10-30T13:15:56;8.70;;;4.35;;
22172;SDS011;11252;50.596;17.648;2022-10-30T13:18:26;12.52;;;4.55;;
22172;SDS011;11252;50.596;17.648;2022-10-30T13:21:17;11.38;;;4.88;;
22172;SDS011;11252;50.596;17.648;2022-10-30T13:34:39;10.05;;;3.90;;
22172;SDS011;11252;50.596;17.648;2022-10-30T13:37:38;6.68;;;3.95;;
22172;SDS011;11252;50.596;17.648;2022-10-30T13:40:31;8.45;;;3.70;;
22172;SDS011;11252;50.596;17.648;2022-10-30T13:43:52;11.30;;;4.18;;
22172;SDS011;11252;50.596;17.648;2022-10-30T13:48:55;9.20;;;4.65;;
22172;SDS011;11252;50.596;17.648;2022-10-30T13:52:18;7.57;;;3.80;;
22172;SDS011;11252;50.596;17.648;2022-10-30T13:57:36;10.75;;;4.13;;
22172;SDS011;11252;50.596;17.648;2022-10-30T14:08:51;9.90;;;4.47;;
22172;SDS011;11252;50.596;17.648;2022-10-30T14:11:21;10.15;;;4.10;;
22172;SDS011;11252;50.596;17.648;2022-10-30T14:14:36;9.50;;;3.60;;
22172;SDS011;11252;50.596;17.648;2022-10-30T14:17:10;7.15;;;4.30;;
22172;SDS011;11252;50.596;17.648;2022-10-30T14:22:39;10.18;;;4.78;;
22172;SDS011;11252;50.596;17.648;2022-10-30T14:25:14;7.97;;;4.38;;
22172;SDS011;11252;50.596;17.648;2022-10-30T14:27:42;12.98;;;5.10;;
22172;SDS011;11252;50.596;17.648;2022-10-30T14:30:21;10.90;;;5.13;;
22172;SDS011;11252;50.596;17.648;2022-10-30T14:32:51;11.43;;;8.10;;
22172;SDS011;11252;50.596;17.648;2022-10-30T14:35:32;12.52;;;8.23;;
22172;SDS011;11252;50.596;17.648;2022-10-30T14:40:39;32.42;;;21.98;;
22172;SDS011;11252;50.596;17.648;2022-10-30T14:43:30;34.95;;;23.05;;
22172;SDS011;11252;50.596;17.648;2022-10-30T14:46:18;37.53;;;23.23;;
22172;SDS011;11252;50.596;17.648;2022-10-30T15:00:36;26.60;;;13.88;;
22172;SDS011;11252;50.596;17.648;2022-10-30T15:05:53;35.47;;;19.33;;
22172;SDS011;11252;50.596;17.648;2022-10-30T15:08:39;19.05;;;12.23;;
22172;SDS011;11252;50.596;17.648;2022-10-30T15:13:53;68.33;;;39.30;;
22172;SDS011;11252;50.596;17.648;2022-10-30T15:16:25;59.95;;;32.10;;
22172;SDS011;11252;50.596;17.648;2022-10-30T15:19:00;71.60;;;35.13;;
22172;SDS011;11252;50.596;17.648;2022-10-30T15:21:32;29.55;;;14.73;;
22172;SDS011;11252;50.596;17.648;2022-10-30T15:24:10;44.67;;;21.48;;
22172;SDS011;11252;50.596;17.648;2022-10-30T15:26:48;45.25;;;22.40;;
22172;SDS011;11252;50.596;17.648;2022-10-30T15:29:19;62.57;;;30.47;;
22172;SDS011;11252;50.596;17.648;2022-10-30T15:34:25;9.57;;;7.13;;
22172;SDS011;11252;50.596;17.648;2022-10-30T15:36:59;12.73;;;7.50;;
22172;SDS011;11252;50.596;17.648;2022-10-30T15:39:42;9.20;;;6.20;;
22172;SDS011;11252;50.596;17.648;2022-10-30T15:42:10;11.87;;;7.50;;
22172;SDS011;11252;50.596;17.648;2022-10-30T15:44:39;11.00;;;7.17;;
22172;SDS011;11252;50.596;17.648;2022-10-30T15:47:18;15.77;;;8.60;;
22172;SDS011;11252;50.596;17.648;2022-10-30T15:49:47;13.30;;;9.33;;
22172;SDS011;11252;50.596;17.648;2022-10-30T15:52:24;24.70;;;12.00;;
22172;SDS011;11252;50.596;17.648;2022-10-30T15:54:56;16.43;;;10.67;;
22172;SDS011;11252;50.596;17.648;2022-10-30T15:57:31;13.23;;;10.03;;
22172;SDS011;11252;50.596;17.648;2022-10-30T16:00:31;12.73;;;8.40;;
22172;SDS011;11252;50.596;17.648;2022-10-30T16:03:03;11.43;;;7.87;;
22172;SDS011;11252;50.596;17.648;2022-10-30T16:05:42;10.33;;;6.77;;
22172;SDS011;11252;50.596;17.648;2022-10-30T16:08:13;11.63;;;8.03;;
22172;SDS011;11252;50.596;17.648;2022-10-30T16:10:46;11.47;;;6.23;;
22172;SDS011;11252;50.596;17.648;2022-10-30T16:13:18;13.60;;;7.87;;
22172;SDS011;11252;50.596;17.648;2022-10-30T16:15:51;14.83;;;13.10;;
22172;SDS011;11252;50.596;17.648;2022-10-30T16:18:30;14.17;;;12.17;;
22172;SDS011;11252;50.596;17.648;2022-10-30T16:21:02;13.20;;;8.93;;
22172;SDS011;11252;50.596;17.648;2022-10-30T16:23:40;14.17;;;12.23;;
22172;SDS011;11252;50.596;17.648;2022-10-30T16:26:45;25.13;;;17.17;;
22172;SDS011;11252;50.596;17.648;2022-10-30T16:31:39;27.03;;;18.90;;
22172;SDS011;11252;50.596;17.648;2022-10-30T16:34:09;21.03;;;16.80;;
22172;SDS011;11252;50.596;17.648;2022-10-30T16:36:43;24.47;;;20.73;;
22172;SDS011;11252;50.596;17.648;2022-10-30T16:39:14;41.80;;;33.47;;
22172;SDS011;11252;50.596;17.648;2022-10-30T16:41:42;68.90;;;53.43;;
22172;SDS011;11252;50.596;17.648;2022-10-30T16:49:19;35.33;;;29.47;;
22172;SDS011;11252;50.596;17.648;2022-10-30T16:51:53;40.40;;;31.13;;
22172;SDS011;11252;50.596;17.648;2022-10-30T16:54:33;39.57;;;30.03;;
22172;SDS011;11252;50.596;17.648;2022-10-30T16:57:08;38.77;;;29.73;;
22172;SDS011;11252;50.596;17.648;2022-10-30T16:59:53;39.90;;;30.13;;
22172;SDS011;11252;50.596;17.648;2022-10-30T17:02:26;38.70;;;29.40;;
22172;SDS011;11252;50.596;17.648;2022-10-30T17:05:07;75.37;;;48.67;;
22172;SDS011;11252;50.596;17.648;2022-10-30T17:07:57;74.33;;;50.57;;
22172;SDS011;11252;50.596;17.648;2022-10-30T17:10:32;60.50;;;42.47;;
22172;SDS011;11252;50.596;17.648;2022-10-30T17:16:22;34.80;;;23.63;;